sensor_id;sensor_type;location;lat;lon;timestamp;P1;durP1;ratioP1;P2;durP2;ratioP2
23242;SDS011;11790;49.578;11.214;2022-10-31T00:04:37;13.90;;;7.78;;
23242;SDS011;11790;49.578;11.214;2022-10-31T00:09:37;15.75;;;7.90;;
23242;SDS011;11790;49.578;11.214;2022-10-31T00:14:38;13.68;;;7.63;;
23242;SDS011;11790;49.578;11.214;2022-10-31T00:19:38;15.82;;;7.32;;
23242;SDS011;11790;49.578;11.214;2022-10-31T00:24:38;18.00;;;7.32;;
23242;SDS011;11790;49.578;11.214;2022-10-31T00:29:38;13.68;;;6.47;;
23242;SDS011;11790;49.578;11.214;2022-10-31T00:34:39;13.93;;;6.97;;
23242;SDS011;11790;49.578;11.214;2022-10-31T00:39:39;12.75;;;6.93;;
23242;SDS011;11790;49.578;11.214;2022-10-31T00:44:39;13.97;;;7.70;;
23242;SDS011;11790;49.578;11.214;2022-10-31T00:49:39;12.77;;;6.80;;
23242;SDS011;11790;49.578;11.214;2022-10-31T00:54:40;11.50;;;6.82;;
23242;SDS011;11790;49.578;11.214;2022-10-31T00:59:40;18.42;;;7.43;;
23242;SDS011;11790;49.578;11.214;2022-10-31T01:04:40;13.73;;;7.28;;
23242;SDS011;11790;49.578;11.214;2022-10-31T01:09:41;17.50;;;6.82;;
23242;SDS011;11790;49.578;11.214;2022-10-31T01:14:44;16.67;;;6.93;;
23242;SDS011;11790;49.578;11.214;2022-10-31T01:19:44;13.52;;;6.65;;
23242;SDS011;11790;49.578;11.214;2022-10-31T01:24:45;19.38;;;6.43;;
23242;SDS011;11790;49.578;11.214;2022-10-31T01:29:45;13.60;;;6.68;;
23242;SDS011;11790;49.578;11.214;2022-10-31T01:34:45;16.90;;;7.20;;
23242;SDS011;11790;49.578;11.214;2022-10-31T01:39:47;12.95;;;6.43;;
23242;SDS011;11790;49.578;11.214;2022-10-31T01:44:50;12.23;;;6.45;;
23242;SDS011;11790;49.578;11.214;2022-10-31T01:49:52;15.43;;;7.00;;
23242;SDS011;11790;49.578;11.214;2022-10-31T01:54:58;13.35;;;7.22;;
23242;SDS011;11790;49.578;11.214;2022-10-31T02:00:04;12.02;;;6.53;;
23242;SDS011;11790;49.578;11.214;2022-10-31T02:05:06;11.60;;;5.97;;
23242;SDS011;11790;49.578;11.214;2022-10-31T02:10:07;14.48;;;6.70;;
23242;SDS011;11790;49.578;11.214;2022-10-31T02:15:08;12.57;;;6.07;;
23242;SDS011;11790;49.578;11.214;2022-10-31T02:25:26;9.23;;;6.07;;
23242;SDS011;11790;49.578;11.214;2022-10-31T02:45:57;18.20;;;6.43;;
23242;SDS011;11790;49.578;11.214;2022-10-31T02:50:59;13.10;;;6.45;;
23242;SDS011;11790;49.578;11.214;2022-10-31T02:56:02;14.80;;;7.18;;
23242;SDS011;11790;49.578;11.214;2022-10-31T03:11:24;21.05;;;6.68;;
23242;SDS011;11790;49.578;11.214;2022-10-31T03:21:45;13.00;;;6.05;;
23242;SDS011;11790;49.578;11.214;2022-10-31T03:26:49;12.15;;;6.47;;
23242;SDS011;11790;49.578;11.214;2022-10-31T03:31:55;10.07;;;6.10;;
23242;SDS011;11790;49.578;11.214;2022-10-31T03:36:58;13.23;;;5.87;;
23242;SDS011;11790;49.578;11.214;2022-10-31T03:42:02;13.07;;;5.93;;
23242;SDS011;11790;49.578;11.214;2022-10-31T03:47:04;15.10;;;6.18;;
23242;SDS011;11790;49.578;11.214;2022-10-31T03:52:11;11.63;;;6.32;;
23242;SDS011;11790;49.578;11.214;2022-10-31T04:02:18;11.02;;;5.43;;
23242;SDS011;11790;49.578;11.214;2022-10-31T04:07:20;12.23;;;5.95;;
23242;SDS011;11790;49.578;11.214;2022-10-31T04:12:21;11.35;;;6.15;;
23242;SDS011;11790;49.578;11.214;2022-10-31T04:17:24;11.75;;;5.50;;
23242;SDS011;11790;49.578;11.214;2022-10-31T04:22:25;13.10;;;6.20;;
23242;SDS011;11790;49.578;11.214;2022-10-31T04:27:26;15.73;;;6.55;;
23242;SDS011;11790;49.578;11.214;2022-10-31T04:32:26;47.35;;;7.95;;
23242;SDS011;11790;49.578;11.214;2022-10-31T04:37:26;16.38;;;6.82;;
23242;SDS011;11790;49.578;11.214;2022-10-31T04:42:30;16.23;;;7.30;;
23242;SDS011;11790;49.578;11.214;2022-10-31T04:47:31;14.57;;;7.50;;
23242;SDS011;11790;49.578;11.214;2022-10-31T04:52:31;19.23;;;7.45;;
23242;SDS011;11790;49.578;11.214;2022-10-31T04:57:32;20.58;;;6.47;;
23242;SDS011;11790;49.578;11.214;2022-10-31T05:02:32;14.68;;;6.97;;
23242;SDS011;11790;49.578;11.214;2022-10-31T05:07:32;13.05;;;6.65;;
23242;SDS011;11790;49.578;11.214;2022-10-31T05:12:32;20.17;;;7.22;;
23242;SDS011;11790;49.578;11.214;2022-10-31T05:17:33;14.70;;;7.10;;
23242;SDS011;11790;49.578;11.214;2022-10-31T05:22:33;12.05;;;6.50;;
23242;SDS011;11790;49.578;11.214;2022-10-31T05:27:33;16.52;;;6.82;;
23242;SDS011;11790;49.578;11.214;2022-10-31T05:32:43;15.02;;;6.93;;
23242;SDS011;11790;49.578;11.214;2022-10-31T05:37:43;13.32;;;6.72;;
23242;SDS011;11790;49.578;11.214;2022-10-31T05:42:43;14.10;;;6.28;;
23242;SDS011;11790;49.578;11.214;2022-10-31T05:48:00;9.95;;;5.75;;
23242;SDS011;11790;49.578;11.214;2022-10-31T05:58:01;13.05;;;5.80;;
23242;SDS011;11790;49.578;11.214;2022-10-31T06:03:02;8.23;;;4.70;;
23242;SDS011;11790;49.578;11.214;2022-10-31T06:08:02;11.60;;;6.32;;
23242;SDS011;11790;49.578;11.214;2022-10-31T06:13:03;10.60;;;5.53;;
23242;SDS011;11790;49.578;11.214;2022-10-31T06:18:04;11.60;;;6.20;;
23242;SDS011;11790;49.578;11.214;2022-10-31T06:23:04;17.02;;;6.63;;
23242;SDS011;11790;49.578;11.214;2022-10-31T06:28:04;9.25;;;6.20;;
23242;SDS011;11790;49.578;11.214;2022-10-31T06:33:05;16.23;;;7.07;;
23242;SDS011;11790;49.578;11.214;2022-10-31T06:38:05;11.38;;;6.78;;
23242;SDS011;11790;49.578;11.214;2022-10-31T06:43:05;13.57;;;7.35;;
23242;SDS011;11790;49.578;11.214;2022-10-31T06:48:06;17.90;;;7.25;;
23242;SDS011;11790;49.578;11.214;2022-10-31T06:53:06;12.13;;;6.53;;
23242;SDS011;11790;49.578;11.214;2022-10-31T06:58:08;15.93;;;6.60;;
23242;SDS011;11790;49.578;11.214;2022-10-31T07:03:12;9.32;;;5.93;;
23242;SDS011;11790;49.578;11.214;2022-10-31T07:08:13;12.23;;;6.80;;
23242;SDS011;11790;49.578;11.214;2022-10-31T07:13:14;14.68;;;7.10;;
23242;SDS011;11790;49.578;11.214;2022-10-31T07:18:14;16.77;;;6.57;;
23242;SDS011;11790;49.578;11.214;2022-10-31T07:23:14;14.00;;;6.57;;
23242;SDS011;11790;49.578;11.214;2022-10-31T07:28:15;9.85;;;5.60;;
23242;SDS011;11790;49.578;11.214;2022-10-31T07:33:15;10.95;;;5.80;;
23242;SDS011;11790;49.578;11.214;2022-10-31T07:38:15;10.85;;;5.40;;
23242;SDS011;11790;49.578;11.214;2022-10-31T07:43:15;8.93;;;5.35;;
23242;SDS011;11790;49.578;11.214;2022-10-31T07:48:15;12.27;;;5.22;;
23242;SDS011;11790;49.578;11.214;2022-10-31T07:53:16;7.10;;;4.93;;
23242;SDS011;11790;49.578;11.214;2022-10-31T07:58:16;6.83;;;4.63;;
23242;SDS011;11790;49.578;11.214;2022-10-31T08:03:17;5.60;;;4.07;;
23242;SDS011;11790;49.578;11.214;2022-10-31T08:08:18;9.02;;;4.28;;
23242;SDS011;11790;49.578;11.214;2022-10-31T08:13:18;5.53;;;3.65;;
23242;SDS011;11790;49.578;11.214;2022-10-31T08:18:18;5.95;;;3.70;;
23242;SDS011;11790;49.578;11.214;2022-10-31T08:23:18;9.53;;;3.70;;
23242;SDS011;11790;49.578;11.214;2022-10-31T08:28:19;5.43;;;3.37;;
23242;SDS011;11790;49.578;11.214;2022-10-31T08:33:19;6.73;;;3.40;;
23242;SDS011;11790;49.578;11.214;2022-10-31T08:38:19;6.15;;;3.67;;
23242;SDS011;11790;49.578;11.214;2022-10-31T08:43:20;5.27;;;3.20;;
23242;SDS011;11790;49.578;11.214;2022-10-31T08:48:20;7.13;;;3.65;;
23242;SDS011;11790;49.578;11.214;2022-10-31T08:53:20;8.45;;;3.80;;
23242;SDS011;11790;49.578;11.214;2022-10-31T08:58:23;4.78;;;3.47;;
23242;SDS011;11790;49.578;11.214;2022-10-31T09:03:24;7.45;;;4.07;;
23242;SDS011;11790;49.578;11.214;2022-10-31T09:08:24;7.20;;;4.20;;
23242;SDS011;11790;49.578;11.214;2022-10-31T09:13:26;11.80;;;5.40;;
23242;SDS011;11790;49.578;11.214;2022-10-31T09:18:26;9.70;;;5.05;;
23242;SDS011;11790;49.578;11.214;2022-10-31T09:23:29;11.25;;;5.70;;
23242;SDS011;11790;49.578;11.214;2022-10-31T09:28:30;11.90;;;5.32;;
23242;SDS011;11790;49.578;11.214;2022-10-31T09:33:31;16.95;;;5.63;;
23242;SDS011;11790;49.578;11.214;2022-10-31T09:38:31;11.77;;;5.22;;
23242;SDS011;11790;49.578;11.214;2022-10-31T09:54:14;9.03;;;5.00;;
23242;SDS011;11790;49.578;11.214;2022-10-31T09:59:16;12.73;;;4.82;;
23242;SDS011;11790;49.578;11.214;2022-10-31T10:04:27;7.75;;;4.65;;
23242;SDS011;11790;49.578;11.214;2022-10-31T10:09:29;7.95;;;4.45;;
23242;SDS011;11790;49.578;11.214;2022-10-31T10:14:42;9.55;;;4.70;;
23242;SDS011;11790;49.578;11.214;2022-10-31T10:24:59;10.05;;;4.50;;
23242;SDS011;11790;49.578;11.214;2022-10-31T10:30:03;7.60;;;3.63;;
23242;SDS011;11790;49.578;11.214;2022-10-31T10:35:10;6.30;;;3.67;;
23242;SDS011;11790;49.578;11.214;2022-10-31T10:45:18;10.77;;;3.90;;
23242;SDS011;11790;49.578;11.214;2022-10-31T10:50:39;8.13;;;3.55;;
23242;SDS011;11790;49.578;11.214;2022-10-31T10:55:47;6.57;;;3.17;;
23242;SDS011;11790;49.578;11.214;2022-10-31T11:00:49;7.18;;;4.57;;
23242;SDS011;11790;49.578;11.214;2022-10-31T11:11:25;6.85;;;3.58;;
23242;SDS011;11790;49.578;11.214;2022-10-31T11:21:29;6.53;;;3.40;;
23242;SDS011;11790;49.578;11.214;2022-10-31T11:26:30;9.68;;;3.58;;
23242;SDS011;11790;49.578;11.214;2022-10-31T11:31:30;6.93;;;3.67;;
23242;SDS011;11790;49.578;11.214;2022-10-31T11:36:32;12.25;;;4.28;;
23242;SDS011;11790;49.578;11.214;2022-10-31T11:41:33;6.47;;;4.00;;
23242;SDS011;11790;49.578;11.214;2022-10-31T11:46:35;5.75;;;3.70;;
23242;SDS011;11790;49.578;11.214;2022-10-31T11:51:37;7.25;;;3.85;;
23242;SDS011;11790;49.578;11.214;2022-10-31T11:56:41;7.43;;;3.80;;
23242;SDS011;11790;49.578;11.214;2022-10-31T12:01:45;9.23;;;3.75;;
23242;SDS011;11790;49.578;11.214;2022-10-31T12:06:46;7.18;;;3.75;;
23242;SDS011;11790;49.578;11.214;2022-10-31T12:11:57;10.80;;;3.88;;
23242;SDS011;11790;49.578;11.214;2022-10-31T12:17:15;6.88;;;3.25;;
23242;SDS011;11790;49.578;11.214;2022-10-31T12:27:36;8.15;;;3.97;;
23242;SDS011;11790;49.578;11.214;2022-10-31T12:53:36;7.80;;;4.15;;
23242;SDS011;11790;49.578;11.214;2022-10-31T12:58:43;7.65;;;3.88;;
23242;SDS011;11790;49.578;11.214;2022-10-31T13:08:53;7.55;;;4.25;;
23242;SDS011;11790;49.578;11.214;2022-10-31T13:24:33;5.93;;;3.63;;
23242;SDS011;11790;49.578;11.214;2022-10-31T13:29:46;4.60;;;3.20;;
23242;SDS011;11790;49.578;11.214;2022-10-31T13:34:53;8.73;;;4.22;;
23242;SDS011;11790;49.578;11.214;2022-10-31T13:45:15;8.13;;;4.00;;
23242;SDS011;11790;49.578;11.214;2022-10-31T13:50:24;9.25;;;4.65;;
23242;SDS011;11790;49.578;11.214;2022-10-31T14:00:36;6.80;;;2.65;;
23242;SDS011;11790;49.578;11.214;2022-10-31T14:05:37;9.15;;;2.95;;
23242;SDS011;11790;49.578;11.214;2022-10-31T14:10:38;7.67;;;1.97;;
23242;SDS011;11790;49.578;11.214;2022-10-31T14:15:42;6.78;;;2.47;;
23242;SDS011;11790;49.578;11.214;2022-10-31T14:20:43;5.20;;;2.00;;
23242;SDS011;11790;49.578;11.214;2022-10-31T14:25:44;8.93;;;2.33;;
23242;SDS011;11790;49.578;11.214;2022-10-31T14:30:51;10.73;;;2.07;;
23242;SDS011;11790;49.578;11.214;2022-10-31T14:51:02;4.78;;;2.08;;
23242;SDS011;11790;49.578;11.214;2022-10-31T14:56:03;5.97;;;2.05;;
23242;SDS011;11790;49.578;11.214;2022-10-31T15:01:48;4.97;;;2.30;;
23242;SDS011;11790;49.578;11.214;2022-10-31T15:06:42;6.38;;;2.55;;
23242;SDS011;11790;49.578;11.214;2022-10-31T15:11:43;8.05;;;2.95;;
23242;SDS011;11790;49.578;11.214;2022-10-31T15:16:43;11.68;;;2.85;;
23242;SDS011;11790;49.578;11.214;2022-10-31T15:21:44;9.87;;;3.07;;
23242;SDS011;11790;49.578;11.214;2022-10-31T15:26:47;9.02;;;3.75;;
23242;SDS011;11790;49.578;11.214;2022-10-31T15:36:51;16.88;;;5.85;;
23242;SDS011;11790;49.578;11.214;2022-10-31T15:41:52;17.63;;;5.35;;
23242;SDS011;11790;49.578;11.214;2022-10-31T15:46:59;13.82;;;5.60;;
23242;SDS011;11790;49.578;11.214;2022-10-31T15:52:42;10.05;;;5.05;;
23242;SDS011;11790;49.578;11.214;2022-10-31T15:57:23;12.63;;;5.05;;
23242;SDS011;11790;49.578;11.214;2022-10-31T16:02:26;15.48;;;4.55;;
23242;SDS011;11790;49.578;11.214;2022-10-31T16:07:27;12.20;;;4.15;;
23242;SDS011;11790;49.578;11.214;2022-10-31T16:12:35;14.32;;;3.95;;
23242;SDS011;11790;49.578;11.214;2022-10-31T16:17:40;10.98;;;3.70;;
23242;SDS011;11790;49.578;11.214;2022-10-31T16:22:40;15.77;;;4.10;;
23242;SDS011;11790;49.578;11.214;2022-10-31T16:27:46;11.55;;;3.60;;
23242;SDS011;11790;49.578;11.214;2022-10-31T16:32:59;13.63;;;4.00;;
23242;SDS011;11790;49.578;11.214;2022-10-31T16:38:01;11.57;;;4.07;;
23242;SDS011;11790;49.578;11.214;2022-10-31T16:43:01;7.95;;;4.05;;
23242;SDS011;11790;49.578;11.214;2022-10-31T16:48:06;12.88;;;5.70;;
23242;SDS011;11790;49.578;11.214;2022-10-31T16:53:06;14.25;;;5.40;;
23242;SDS011;11790;49.578;11.214;2022-10-31T16:58:07;17.08;;;5.70;;
23242;SDS011;11790;49.578;11.214;2022-10-31T17:03:09;14.63;;;6.22;;
23242;SDS011;11790;49.578;11.214;2022-10-31T17:08:10;19.20;;;6.60;;
23242;SDS011;11790;49.578;11.214;2022-10-31T17:13:12;15.00;;;7.03;;
23242;SDS011;11790;49.578;11.214;2022-10-31T17:18:14;16.73;;;6.85;;
23242;SDS011;11790;49.578;11.214;2022-10-31T17:23:15;12.55;;;6.50;;
23242;SDS011;11790;49.578;11.214;2022-10-31T17:28:16;18.73;;;6.28;;
23242;SDS011;11790;49.578;11.214;2022-10-31T17:33:16;14.47;;;7.13;;
23242;SDS011;11790;49.578;11.214;2022-10-31T17:38:16;14.07;;;6.73;;
23242;SDS011;11790;49.578;11.214;2022-10-31T17:43:17;20.90;;;7.10;;
23242;SDS011;11790;49.578;11.214;2022-10-31T17:48:17;16.20;;;8.00;;
23242;SDS011;11790;49.578;11.214;2022-10-31T17:53:18;16.27;;;8.18;;
23242;SDS011;11790;49.578;11.214;2022-10-31T17:58:18;17.90;;;8.25;;
23242;SDS011;11790;49.578;11.214;2022-10-31T18:03:18;16.63;;;9.00;;
23242;SDS011;11790;49.578;11.214;2022-10-31T18:08:18;15.95;;;9.77;;
23242;SDS011;11790;49.578;11.214;2022-10-31T18:13:19;20.17;;;9.27;;
23242;SDS011;11790;49.578;11.214;2022-10-31T18:18:19;15.97;;;8.10;;
23242;SDS011;11790;49.578;11.214;2022-10-31T18:23:19;17.00;;;8.27;;
23242;SDS011;11790;49.578;11.214;2022-10-31T18:28:20;16.05;;;8.18;;
23242;SDS011;11790;49.578;11.214;2022-10-31T18:33:20;14.93;;;7.32;;
23242;SDS011;11790;49.578;11.214;2022-10-31T18:38:20;15.35;;;6.90;;
23242;SDS011;11790;49.578;11.214;2022-10-31T18:43:21;13.30;;;7.53;;
23242;SDS011;11790;49.578;11.214;2022-10-31T18:48:21;18.88;;;8.45;;
23242;SDS011;11790;49.578;11.214;2022-10-31T18:53:21;21.80;;;8.67;;
23242;SDS011;11790;49.578;11.214;2022-10-31T18:58:22;13.75;;;7.72;;
23242;SDS011;11790;49.578;11.214;2022-10-31T19:03:22;20.45;;;9.05;;
23242;SDS011;11790;49.578;11.214;2022-10-31T19:08:22;17.48;;;9.30;;
23242;SDS011;11790;49.578;11.214;2022-10-31T19:13:23;25.85;;;11.13;;
23242;SDS011;11790;49.578;11.214;2022-10-31T19:18:23;24.30;;;13.98;;
23242;SDS011;11790;49.578;11.214;2022-10-31T19:23:23;22.35;;;12.80;;
23242;SDS011;11790;49.578;11.214;2022-10-31T19:28:23;23.00;;;12.02;;
23242;SDS011;11790;49.578;11.214;2022-10-31T19:33:24;17.35;;;9.18;;
23242;SDS011;11790;49.578;11.214;2022-10-31T19:38:30;21.88;;;10.90;;
23242;SDS011;11790;49.578;11.214;2022-10-31T19:43:30;22.95;;;10.38;;
23242;SDS011;11790;49.578;11.214;2022-10-31T19:48:31;25.70;;;13.77;;
23242;SDS011;11790;49.578;11.214;2022-10-31T19:53:31;27.00;;;13.97;;
23242;SDS011;11790;49.578;11.214;2022-10-31T19:58:32;37.70;;;17.70;;
23242;SDS011;11790;49.578;11.214;2022-10-31T20:03:32;36.47;;;18.70;;
23242;SDS011;11790;49.578;11.214;2022-10-31T20:08:33;40.78;;;19.95;;
23242;SDS011;11790;49.578;11.214;2022-10-31T20:13:35;37.97;;;18.67;;
23242;SDS011;11790;49.578;11.214;2022-10-31T20:18:35;36.20;;;17.08;;
23242;SDS011;11790;49.578;11.214;2022-10-31T20:23:36;42.25;;;20.80;;
23242;SDS011;11790;49.578;11.214;2022-10-31T20:28:37;42.53;;;19.08;;
23242;SDS011;11790;49.578;11.214;2022-10-31T20:33:38;36.13;;;17.42;;
23242;SDS011;11790;49.578;11.214;2022-10-31T20:38:39;42.17;;;19.23;;
23242;SDS011;11790;49.578;11.214;2022-10-31T20:43:39;42.15;;;19.60;;
23242;SDS011;11790;49.578;11.214;2022-10-31T20:48:40;37.08;;;18.15;;
23242;SDS011;11790;49.578;11.214;2022-10-31T20:53:40;46.58;;;21.52;;
23242;SDS011;11790;49.578;11.214;2022-10-31T20:58:42;37.80;;;18.60;;
23242;SDS011;11790;49.578;11.214;2022-10-31T21:03:42;39.92;;;20.08;;
23242;SDS011;11790;49.578;11.214;2022-10-31T21:08:43;36.88;;;15.20;;
23242;SDS011;11790;49.578;11.214;2022-10-31T21:13:44;32.85;;;13.77;;
23242;SDS011;11790;49.578;11.214;2022-10-31T21:18:45;29.60;;;15.48;;
23242;SDS011;11790;49.578;11.214;2022-10-31T21:23:46;94.05;;;38.85;;
23242;SDS011;11790;49.578;11.214;2022-10-31T21:28:47;125.22;;;48.80;;
23242;SDS011;11790;49.578;11.214;2022-10-31T21:33:47;97.45;;;37.92;;
23242;SDS011;11790;49.578;11.214;2022-10-31T21:38:51;48.83;;;20.90;;
23242;SDS011;11790;49.578;11.214;2022-10-31T21:43:51;34.60;;;17.92;;
23242;SDS011;11790;49.578;11.214;2022-10-31T21:48:55;33.65;;;16.30;;
23242;SDS011;11790;49.578;11.214;2022-10-31T21:53:55;39.03;;;21.77;;
23242;SDS011;11790;49.578;11.214;2022-10-31T21:59:14;29.95;;;15.88;;
23242;SDS011;11790;49.578;11.214;2022-10-31T22:04:15;32.03;;;16.40;;
23242;SDS011;11790;49.578;11.214;2022-10-31T22:09:15;26.83;;;14.35;;
23242;SDS011;11790;49.578;11.214;2022-10-31T22:14:17;27.38;;;13.65;;
23242;SDS011;11790;49.578;11.214;2022-10-31T22:19:18;27.73;;;14.57;;
23242;SDS011;11790;49.578;11.214;2022-10-31T22:24:18;27.92;;;14.82;;
23242;SDS011;11790;49.578;11.214;2022-10-31T22:29:19;26.17;;;14.10;;
23242;SDS011;11790;49.578;11.214;2022-10-31T22:34:19;27.75;;;12.63;;
23242;SDS011;11790;49.578;11.214;2022-10-31T22:39:19;22.13;;;12.32;;
23242;SDS011;11790;49.578;11.214;2022-10-31T22:44:20;23.60;;;12.93;;
23242;SDS011;11790;49.578;11.214;2022-10-31T22:49:20;26.15;;;13.80;;
23242;SDS011;11790;49.578;11.214;2022-10-31T22:54:20;20.48;;;12.98;;
23242;SDS011;11790;49.578;11.214;2022-10-31T22:59:21;22.67;;;12.32;;
23242;SDS011;11790;49.578;11.214;2022-10-31T23:04:21;20.30;;;12.13;;
23242;SDS011;11790;49.578;11.214;2022-10-31T23:09:21;24.20;;;11.45;;
23242;SDS011;11790;49.578;11.214;2022-10-31T23:14:21;20.70;;;11.52;;
23242;SDS011;11790;49.578;11.214;2022-10-31T23:19:23;30.02;;;11.30;;
23242;SDS011;11790;49.578;11.214;2022-10-31T23:24:32;20.70;;;11.57;;
23242;SDS011;11790;49.578;11.214;2022-10-31T23:29:34;21.15;;;9.63;;
23242;SDS011;11790;49.578;11.214;2022-10-31T23:34:35;19.38;;;10.07;;
23242;SDS011;11790;49.578;11.214;2022-10-31T23:39:35;22.45;;;10.60;;
23242;SDS011;11790;49.578;11.214;2022-10-31T23:44:35;16.00;;;9.60;;
23242;SDS011;11790;49.578;11.214;2022-10-31T23:49:35;20.88;;;9.98;;
23242;SDS011;11790;49.578;11.214;2022-10-31T23:54:36;19.48;;;10.43;;
23242;SDS011;11790;49.578;11.214;2022-10-31T23:59:36;22.08;;;9.70;;
